createdAt,value
2023-01-19T00:00:11.985Z,0.81
2023-01-19T00:01:16.038Z,0.81
2023-01-19T00:02:19.491Z,0.81
2023-01-19T00:03:55.528Z,0.88
2023-01-19T00:04:59.090Z,0.88
2023-01-19T00:06:02.712Z,0.88
2023-01-19T00:07:39.323Z,0.94
2023-01-19T00:08:43.460Z,0.94
2023-01-19T00:09:47.086Z,0.94
2023-01-19T00:11:23.111Z,0.94
2023-01-19T00:12:26.713Z,0.94
2023-01-19T00:13:30.295Z,0.94
2023-01-19T00:15:06.110Z,0.94
2023-01-19T00:16:09.763Z,0.94
2023-01-19T00:17:13.770Z,0.94
2023-01-19T00:18:51.374Z,0.94
2023-01-19T00:19:55.035Z,0.88
2023-01-19T00:20:58.720Z,0.88
2023-01-19T00:22:34.768Z,0.88
2023-01-19T00:23:39.035Z,0.88
2023-01-19T00:24:42.502Z,0.88
2023-01-19T00:26:18.388Z,0.94
2023-01-19T00:27:21.743Z,0.94
2023-01-19T00:28:25.273Z,0.88
2023-01-19T00:30:00.921Z,0.88
2023-01-19T00:31:04.485Z,0.88
2023-01-19T00:32:08.883Z,0.81
2023-01-19T00:33:45.780Z,0.81
2023-01-19T00:34:49.685Z,0.81
2023-01-19T00:35:52.970Z,0.75
2023-01-19T00:37:28.479Z,0.75
2023-01-19T00:38:31.966Z,0.75
2023-01-19T00:39:35.506Z,0.81
2023-01-19T00:41:11.193Z,0.75
2023-01-19T00:42:14.710Z,0.75
2023-01-19T00:43:18.333Z,0.75
2023-01-19T00:44:54.090Z,0.75
2023-01-19T00:45:57.611Z,0.81
2023-01-19T00:47:01.587Z,0.81
2023-01-19T00:48:37.167Z,0.81
2023-01-19T00:49:40.914Z,0.81
2023-01-19T00:50:44.443Z,0.81
2023-01-19T00:52:20.305Z,0.81
2023-01-19T00:53:24.023Z,0.81
2023-01-19T00:54:27.721Z,0.75
2023-01-19T00:56:03.586Z,0.75
2023-01-19T00:57:07.135Z,0.75
2023-01-19T00:58:10.610Z,0.81
2023-01-19T00:59:46.281Z,0.81
2023-01-19T01:00:12.813Z,0.75
2023-01-19T01:01:16.415Z,0.81
2023-01-19T01:02:44.991Z,0.81
2023-01-19T01:04:21.866Z,0.81
2023-01-19T01:05:25.342Z,0.81
2023-01-19T01:06:29.036Z,0.81
2023-01-19T01:08:04.799Z,0.81
2023-01-19T01:09:08.432Z,0.81
2023-01-19T01:10:12.061Z,0.81
2023-01-19T01:11:47.801Z,0.81
2023-01-19T01:12:57.307Z,0.81
2023-01-19T01:14:26.943Z,0.81
2023-01-19T01:16:03.023Z,0.81
2023-01-19T01:17:06.901Z,0.81
2023-01-19T01:18:10.409Z,0.75
2023-01-19T01:19:46.025Z,0.75
2023-01-19T01:20:49.539Z,0.75
2023-01-19T01:21:54.264Z,0.75
2023-01-19T01:23:29.889Z,0.75
2023-01-19T01:24:33.492Z,0.75
2023-01-19T01:25:37.077Z,0.75
2023-01-19T01:27:14.400Z,0.75
2023-01-19T01:28:17.891Z,0.75
2023-01-19T01:29:21.507Z,0.75
2023-01-19T01:30:57.172Z,0.69
2023-01-19T01:32:00.801Z,0.75
2023-01-19T01:33:04.431Z,0.75
2023-01-19T01:35:05.729Z,0.75
2023-01-19T01:36:09.383Z,0.75
2023-01-19T01:37:12.839Z,0.75
2023-01-19T01:38:48.611Z,0.81
2023-01-19T01:39:52.129Z,0.81
2023-01-19T01:40:55.904Z,0.81
2023-01-19T01:42:42.429Z,0.88
2023-01-19T01:43:48.334Z,0.88
2023-01-19T01:44:51.930Z,0.88
2023-01-19T01:46:28.034Z,0.88
2023-01-19T01:47:31.308Z,0.94
2023-01-19T01:48:35.111Z,0.94
2023-01-19T01:50:10.695Z,0.94
2023-01-19T01:51:14.393Z,1.00
2023-01-19T01:52:17.937Z,1.00
2023-01-19T01:54:14.376Z,1.06
2023-01-19T01:55:18.029Z,1.06
2023-01-19T01:56:21.406Z,1.13
2023-01-19T01:57:57.233Z,1.19
2023-01-19T01:59:00.537Z,1.19
2023-01-19T02:00:12.494Z,1.19
2023-01-19T02:01:16.324Z,1.19
2023-01-19T02:02:22.010Z,1.25
2023-01-19T02:03:59.315Z,1.25
2023-01-19T02:05:02.670Z,1.25
2023-01-19T02:06:06.116Z,1.25
2023-01-19T02:07:41.941Z,1.31
2023-01-19T02:08:45.506Z,1.31
2023-01-19T02:09:49.116Z,1.31
2023-01-19T02:11:24.738Z,1.31
2023-01-19T02:12:28.496Z,1.31
2023-01-19T02:13:32.226Z,1.31
2023-01-19T02:15:07.581Z,1.31
2023-01-19T02:16:11.229Z,1.31
2023-01-19T02:17:15.048Z,1.31
2023-01-19T02:18:50.634Z,1.31
2023-01-19T02:19:53.913Z,1.31
2023-01-19T02:20:57.165Z,1.31
2023-01-19T02:22:32.942Z,1.31
2023-01-19T02:23:37.052Z,1.31
2023-01-19T02:24:40.681Z,1.31
2023-01-19T02:26:16.397Z,1.25
2023-01-19T02:27:20.105Z,1.25
2023-01-19T02:28:23.677Z,1.25
2023-01-19T02:29:59.377Z,1.25
2023-01-19T02:31:03.679Z,1.25
2023-01-19T02:32:07.301Z,1.25
2023-01-19T02:33:43.507Z,1.25
2023-01-19T02:34:47.118Z,1.25
2023-01-19T02:35:50.574Z,1.25
2023-01-19T02:37:26.366Z,1.19
2023-01-19T02:38:29.960Z,1.19
2023-01-19T02:39:33.525Z,1.19
2023-01-19T02:41:09.293Z,1.19
2023-01-19T02:42:12.659Z,1.19
2023-01-19T02:43:16.497Z,1.06
2023-01-19T02:44:52.288Z,1.00
2023-01-19T02:45:56.033Z,0.94
2023-01-19T02:46:59.890Z,0.81
2023-01-19T02:48:35.535Z,0.81
2023-01-19T02:49:39.152Z,0.69
2023-01-19T02:50:42.686Z,0.63
2023-01-19T02:52:18.462Z,0.56
2023-01-19T02:53:22.094Z,0.56
2023-01-19T02:54:25.680Z,0.56
2023-01-19T02:56:01.607Z,0.56
2023-01-19T02:57:05.035Z,0.50
2023-01-19T02:58:08.581Z,0.50
2023-01-19T02:59:44.273Z,0.56
2023-01-19T03:00:12.094Z,0.56
2023-01-19T03:01:15.843Z,0.56
2023-01-19T03:02:20.439Z,0.56
2023-01-19T03:03:56.775Z,0.56
2023-01-19T03:05:00.304Z,0.56
2023-01-19T03:06:03.753Z,0.56
2023-01-19T03:07:39.237Z,0.56
2023-01-19T03:08:42.799Z,0.56
2023-01-19T03:09:46.219Z,0.56
2023-01-19T03:11:22.257Z,0.56
2023-01-19T03:12:25.709Z,0.56
2023-01-19T03:13:29.393Z,0.56
2023-01-19T03:15:08.602Z,0.56
2023-01-19T03:16:12.635Z,0.56
2023-01-19T03:17:16.683Z,0.56
2023-01-19T03:18:52.487Z,0.56
2023-01-19T03:19:55.913Z,0.56
2023-01-19T03:20:59.513Z,0.56
2023-01-19T03:22:34.947Z,0.56
2023-01-19T03:23:39.362Z,0.63
2023-01-19T03:24:42.830Z,0.63
2023-01-19T03:26:18.658Z,0.63
2023-01-19T03:27:22.117Z,0.63
2023-01-19T03:28:25.804Z,0.69
2023-01-19T03:30:01.585Z,0.69
2023-01-19T03:31:05.358Z,0.69
2023-01-19T03:32:08.899Z,0.69
2023-01-19T03:33:45.195Z,0.69
2023-01-19T03:34:48.872Z,0.69
2023-01-19T03:35:52.251Z,0.75
2023-01-19T03:37:28.082Z,0.75
2023-01-19T03:38:31.553Z,0.75
2023-01-19T03:39:35.193Z,0.75
2023-01-19T03:41:11.142Z,0.75
2023-01-19T03:42:14.733Z,0.81
2023-01-19T03:43:18.648Z,0.81
2023-01-19T03:44:54.241Z,0.81
2023-01-19T03:45:57.559Z,0.81
2023-01-19T03:47:01.230Z,0.88
2023-01-19T03:48:36.720Z,0.88
2023-01-19T03:49:40.396Z,0.88
2023-01-19T03:50:43.995Z,0.94
2023-01-19T03:52:19.693Z,0.94
2023-01-19T03:53:23.146Z,1.00
2023-01-19T03:54:26.714Z,1.00
2023-01-19T03:56:02.584Z,1.00
2023-01-19T03:57:05.672Z,1.00
2023-01-19T03:58:09.216Z,1.00
2023-01-19T03:59:44.834Z,1.00
2023-01-19T04:00:12.759Z,1.00
2023-01-19T04:01:16.440Z,1.00
2023-01-19T04:02:21.190Z,1.06
2023-01-19T04:03:57.100Z,1.06
2023-01-19T04:05:00.635Z,1.13
2023-01-19T04:06:04.033Z,1.13
2023-01-19T04:07:39.579Z,1.13
2023-01-19T04:08:42.910Z,1.19
2023-01-19T04:09:46.417Z,1.19
2023-01-19T04:11:22.100Z,1.19
2023-01-19T04:12:25.450Z,1.19
2023-01-19T04:13:29.269Z,1.19
2023-01-19T04:15:04.925Z,1.19
2023-01-19T04:16:08.468Z,1.25
2023-01-19T04:17:12.410Z,1.25
2023-01-19T04:18:48.026Z,1.25
2023-01-19T04:19:51.491Z,1.25
2023-01-19T04:20:55.131Z,1.25
2023-01-19T04:22:30.439Z,1.25
2023-01-19T04:23:34.581Z,1.31
2023-01-19T04:24:37.961Z,1.31
2023-01-19T04:26:14.132Z,1.31
2023-01-19T04:27:17.342Z,1.31
2023-01-19T04:28:20.697Z,1.31
2023-01-19T04:29:56.710Z,1.38
2023-01-19T04:31:00.023Z,1.31
2023-01-19T04:32:04.069Z,1.38
2023-01-19T04:33:40.173Z,1.38
2023-01-19T04:34:43.597Z,1.38
2023-01-19T04:35:47.105Z,1.38
2023-01-19T04:37:24.631Z,1.38
2023-01-19T04:38:28.231Z,1.38
2023-01-19T04:39:31.544Z,1.38
2023-01-19T04:41:07.339Z,1.38
2023-01-19T04:42:11.956Z,1.44
2023-01-19T04:43:15.387Z,1.44
2023-01-19T04:44:51.330Z,1.50
2023-01-19T04:45:54.953Z,1.56
2023-01-19T04:46:58.831Z,1.63
2023-01-19T04:48:34.679Z,1.63
2023-01-19T04:49:40.159Z,1.63
2023-01-19T04:50:43.739Z,1.69
2023-01-19T04:52:19.284Z,1.69
2023-01-19T04:53:22.851Z,1.69
2023-01-19T04:54:26.495Z,1.63
2023-01-19T04:56:02.098Z,1.63
2023-01-19T04:57:05.736Z,1.69
2023-01-19T04:58:09.298Z,1.69
2023-01-19T04:59:45.121Z,1.69
2023-01-19T05:00:12.525Z,1.69
2023-01-19T05:01:15.938Z,1.69
2023-01-19T05:02:20.482Z,1.75
2023-01-19T05:03:56.419Z,1.75
2023-01-19T05:04:59.708Z,1.81
2023-01-19T05:05:41.240Z,1.81
2023-01-19T05:06:44.784Z,1.81
2023-01-19T05:07:48.492Z,1.81
2023-01-19T05:09:26.278Z,1.81
2023-01-19T05:10:29.689Z,1.81
2023-01-19T05:11:33.397Z,1.88
2023-01-19T05:13:09.525Z,1.88
2023-01-19T05:14:13.103Z,1.88
2023-01-19T05:15:16.656Z,1.88
2023-01-19T05:16:52.240Z,1.88
2023-01-19T05:17:55.906Z,1.94
2023-01-19T05:18:59.547Z,1.94
2023-01-19T05:20:35.123Z,1.94
2023-01-19T05:21:38.794Z,1.94
2023-01-19T05:22:42.509Z,1.94
2023-01-19T05:24:18.608Z,1.94
2023-01-19T05:25:22.080Z,1.94
2023-01-19T05:26:25.111Z,2.00
2023-01-19T05:28:00.787Z,2.00
2023-01-19T05:29:04.136Z,2.00
2023-01-19T05:30:07.787Z,2.06
2023-01-19T05:31:43.863Z,2.06
2023-01-19T05:32:47.849Z,2.06
2023-01-19T05:33:51.831Z,2.06
2023-01-19T05:35:35.671Z,2.06
2023-01-19T05:36:39.893Z,2.06
2023-01-19T05:37:43.316Z,2.13
2023-01-19T05:39:22.326Z,2.13
2023-01-19T05:40:25.857Z,2.13
2023-01-19T05:41:29.284Z,2.13
2023-01-19T05:43:07.657Z,2.06
2023-01-19T05:44:10.927Z,2.06
2023-01-19T05:45:14.173Z,2.06
2023-01-19T05:46:50.159Z,2.13
2023-01-19T05:47:53.674Z,2.13
2023-01-19T05:48:57.136Z,2.13
2023-01-19T05:50:32.862Z,2.13
2023-01-19T05:51:36.548Z,2.13
2023-01-19T05:52:39.875Z,2.19
2023-01-19T05:54:16.338Z,2.19
2023-01-19T05:55:19.906Z,2.13
2023-01-19T05:56:23.095Z,2.13
2023-01-19T05:57:58.682Z,2.19
2023-01-19T05:59:02.260Z,2.13
2023-01-19T06:00:12.005Z,2.13
2023-01-19T06:01:15.483Z,2.13
2023-01-19T06:02:20.988Z,2.13
2023-01-19T06:03:57.375Z,2.13
2023-01-19T06:05:01.084Z,2.13
2023-01-19T06:06:04.363Z,2.13
2023-01-19T06:07:40.083Z,2.06
2023-01-19T06:08:43.541Z,2.06
2023-01-19T06:09:46.927Z,2.06
2023-01-19T06:11:22.546Z,2.06
2023-01-19T06:12:25.834Z,2.06
2023-01-19T06:13:29.276Z,2.06
2023-01-19T06:15:06.383Z,2.06
2023-01-19T06:16:10.107Z,2.00
2023-01-19T06:17:13.827Z,2.00
2023-01-19T06:18:49.684Z,2.00
2023-01-19T06:19:52.842Z,2.00
2023-01-19T06:20:56.212Z,1.94
2023-01-19T06:22:31.947Z,1.94
2023-01-19T06:23:35.827Z,1.94
2023-01-19T06:24:39.472Z,1.94
2023-01-19T06:26:15.144Z,1.94
2023-01-19T06:27:18.788Z,1.94
2023-01-19T06:28:22.552Z,1.94
2023-01-19T06:29:57.957Z,1.94
2023-01-19T06:31:01.647Z,2.00
2023-01-19T06:32:05.510Z,2.00
2023-01-19T06:33:41.751Z,1.94
2023-01-19T06:34:45.449Z,1.94
2023-01-19T06:35:51.602Z,1.94
2023-01-19T06:37:26.892Z,1.94
2023-01-19T06:38:30.076Z,1.94
2023-01-19T06:39:33.694Z,1.94
2023-01-19T06:41:09.408Z,1.94
2023-01-19T06:42:13.131Z,2.00
2023-01-19T06:43:16.493Z,2.00
2023-01-19T06:44:51.920Z,2.00
2023-01-19T06:45:55.316Z,2.00
2023-01-19T06:47:15.417Z,2.00
2023-01-19T06:48:51.685Z,2.00
2023-01-19T06:49:55.267Z,2.00
2023-01-19T06:50:59.812Z,2.00
2023-01-19T06:52:35.565Z,2.00
2023-01-19T06:53:39.604Z,2.00
2023-01-19T06:54:43.085Z,2.00
2023-01-19T06:56:21.464Z,2.06
2023-01-19T06:57:25.782Z,2.06
2023-01-19T06:58:29.693Z,2.06
2023-01-19T07:00:12.654Z,2.06
2023-01-19T07:01:16.329Z,2.06
2023-01-19T07:02:27.546Z,2.13
2023-01-19T07:04:04.895Z,2.13
2023-01-19T07:05:08.442Z,2.13
2023-01-19T07:06:12.391Z,2.13
2023-01-19T07:07:48.315Z,2.13
2023-01-19T07:08:51.519Z,2.13
2023-01-19T07:09:57.658Z,2.13
2023-01-19T07:12:32.047Z,2.13
2023-01-19T07:13:37.935Z,2.13
2023-01-19T07:14:41.273Z,2.13
2023-01-19T07:16:16.877Z,2.06
2023-01-19T07:17:20.670Z,2.06
2023-01-19T07:18:23.808Z,2.00
2023-01-19T07:19:59.227Z,2.00
2023-01-19T07:21:02.648Z,2.00
2023-01-19T07:22:07.808Z,1.94
2023-01-19T07:23:44.205Z,1.94
2023-01-19T07:24:47.357Z,1.94
2023-01-19T07:25:50.873Z,1.94
2023-01-19T07:27:26.347Z,1.88
2023-01-19T07:28:29.802Z,1.88
2023-01-19T07:29:34.366Z,1.88
2023-01-19T07:31:10.226Z,1.88
2023-01-19T07:32:14.961Z,1.88
2023-01-19T07:33:18.283Z,1.81
2023-01-19T07:34:54.144Z,1.88
2023-01-19T07:35:57.486Z,1.81
2023-01-19T07:37:00.640Z,1.81
2023-01-19T07:38:36.425Z,1.81
2023-01-19T07:39:39.773Z,1.81
2023-01-19T07:40:43.423Z,1.81
2023-01-19T07:42:19.249Z,1.81
2023-01-19T07:43:23.003Z,1.81
2023-01-19T07:44:26.213Z,1.81
2023-01-19T07:46:03.217Z,1.81
2023-01-19T07:47:07.301Z,1.81
2023-01-19T07:48:10.894Z,1.81
2023-01-19T07:49:46.585Z,1.88
2023-01-19T07:50:49.883Z,1.88
2023-01-19T07:51:54.001Z,1.88
2023-01-19T07:53:29.481Z,1.88
2023-01-19T07:54:33.462Z,1.94
2023-01-19T07:55:36.889Z,1.94
2023-01-19T07:57:14.295Z,1.88
2023-01-19T07:58:17.569Z,1.94
2023-01-19T07:59:21.463Z,1.88
2023-01-19T08:00:12.230Z,1.88
2023-01-19T08:01:16.020Z,1.88
2023-01-19T08:02:21.048Z,1.88
2023-01-19T08:03:56.891Z,1.88
2023-01-19T08:05:00.411Z,1.88
2023-01-19T08:06:03.982Z,1.88
2023-01-19T08:07:39.893Z,1.81
2023-01-19T08:08:46.610Z,1.81
2023-01-19T08:09:50.060Z,1.81
2023-01-19T08:11:25.727Z,1.81
2023-01-19T08:12:29.394Z,1.81
2023-01-19T08:13:33.084Z,1.81
2023-01-19T08:15:08.704Z,1.81
2023-01-19T08:16:12.418Z,1.81
2023-01-19T08:17:16.008Z,1.81
2023-01-19T08:18:51.732Z,1.88
2023-01-19T08:19:55.031Z,1.88
2023-01-19T08:20:58.618Z,1.88
2023-01-19T08:22:34.114Z,1.94
2023-01-19T08:23:38.500Z,1.94
2023-01-19T08:24:42.139Z,1.94
2023-01-19T08:26:20.565Z,1.94
2023-01-19T08:27:24.062Z,1.94
2023-01-19T08:28:27.692Z,2.00
2023-01-19T08:30:03.090Z,2.06
2023-01-19T08:31:19.185Z,2.06
2023-01-19T08:32:25.377Z,2.13
2023-01-19T08:34:01.082Z,2.19
2023-01-19T08:35:04.303Z,2.19
2023-01-19T08:36:07.981Z,2.19
2023-01-19T08:37:43.380Z,2.19
2023-01-19T08:38:46.794Z,2.19
2023-01-19T08:39:50.428Z,2.19
2023-01-19T08:41:26.431Z,2.13
2023-01-19T08:42:30.043Z,2.19
2023-01-19T08:43:35.435Z,2.13
2023-01-19T08:45:16.325Z,2.19
2023-01-19T08:46:19.899Z,2.13
2023-01-19T08:47:23.846Z,2.13
2023-01-19T08:49:00.111Z,2.13
2023-01-19T08:50:03.516Z,2.13
2023-01-19T08:51:06.916Z,2.06
2023-01-19T08:52:42.637Z,2.13
2023-01-19T08:53:46.393Z,2.06
2023-01-19T08:54:49.941Z,2.13
2023-01-19T08:56:25.543Z,2.13
2023-01-19T08:57:29.130Z,2.13
2023-01-19T08:58:33.235Z,2.19
2023-01-19T09:00:12.035Z,2.19
2023-01-19T09:01:15.762Z,2.19
2023-01-19T09:02:20.440Z,2.25
2023-01-19T09:03:56.918Z,2.31
2023-01-19T09:05:00.269Z,2.31
2023-01-19T09:06:03.677Z,2.31
2023-01-19T09:07:39.055Z,2.31
2023-01-19T09:08:42.961Z,2.31
2023-01-19T09:09:46.149Z,2.31
2023-01-19T09:11:21.961Z,2.31
2023-01-19T09:12:25.521Z,2.38
2023-01-19T09:13:29.142Z,2.38
2023-01-19T09:15:04.997Z,2.38
2023-01-19T09:16:08.459Z,2.38
2023-01-19T09:17:12.139Z,2.38
2023-01-19T09:18:48.051Z,2.38
2023-01-19T09:19:51.388Z,2.38
2023-01-19T09:20:54.778Z,2.38
2023-01-19T09:22:30.232Z,2.38
2023-01-19T09:23:33.979Z,2.38
2023-01-19T09:24:37.422Z,2.31
2023-01-19T09:26:13.361Z,2.38
2023-01-19T09:27:19.619Z,2.38
2023-01-19T09:28:23.204Z,2.38
2023-01-19T09:29:59.089Z,2.38
2023-01-19T09:31:02.716Z,2.38
2023-01-19T09:32:07.015Z,2.44
2023-01-19T09:33:45.542Z,2.44
2023-01-19T09:34:49.151Z,2.44
2023-01-19T09:35:52.495Z,2.44
2023-01-19T09:37:27.993Z,2.44
2023-01-19T09:38:31.681Z,2.44
2023-01-19T09:39:35.434Z,2.44
2023-01-19T09:41:11.672Z,2.44
2023-01-19T09:42:15.292Z,2.44
2023-01-19T09:43:18.627Z,2.44
2023-01-19T09:44:54.620Z,2.44
2023-01-19T09:45:58.729Z,2.44
2023-01-19T09:47:02.303Z,2.44
2023-01-19T09:48:38.344Z,2.44
2023-01-19T09:49:41.743Z,2.44
2023-01-19T09:50:45.370Z,2.44
2023-01-19T09:52:20.918Z,2.50
2023-01-19T09:53:24.351Z,2.50
2023-01-19T09:54:28.095Z,2.50
2023-01-19T09:56:03.443Z,2.56
2023-01-19T09:57:06.753Z,2.63
2023-01-19T09:58:10.291Z,2.63
2023-01-19T09:59:45.670Z,2.63
2023-01-19T10:00:12.691Z,2.63
2023-01-19T10:01:16.493Z,2.63
2023-01-19T10:02:22.440Z,2.69
2023-01-19T10:03:59.017Z,2.69
2023-01-19T10:05:02.573Z,2.69
2023-01-19T10:06:06.030Z,2.69
2023-01-19T10:07:41.639Z,2.69
2023-01-19T10:08:45.522Z,2.69
2023-01-19T10:09:49.021Z,2.69
2023-01-19T10:11:25.487Z,2.69
2023-01-19T10:12:45.534Z,2.69
2023-01-19T10:13:49.359Z,2.75
2023-01-19T10:15:25.041Z,2.81
2023-01-19T10:16:28.842Z,2.81
2023-01-19T10:17:32.464Z,2.88
2023-01-19T10:19:08.891Z,2.88
2023-01-19T10:20:12.463Z,2.94
2023-01-19T10:21:16.276Z,2.94
2023-01-19T10:22:52.470Z,3.00
2023-01-19T10:23:56.510Z,3.00
2023-01-19T10:25:00.054Z,3.00
2023-01-19T10:26:36.438Z,3.00
2023-01-19T10:27:39.711Z,3.00
2023-01-19T10:28:43.402Z,3.06
2023-01-19T10:30:19.071Z,3.06
2023-01-19T10:31:22.893Z,3.13
2023-01-19T10:32:27.176Z,3.19
2023-01-19T10:34:03.110Z,3.19
2023-01-19T10:35:10.300Z,3.19
2023-01-19T10:36:13.673Z,3.25
2023-01-19T10:37:49.122Z,3.25
2023-01-19T10:38:52.706Z,3.31
2023-01-19T10:39:56.257Z,3.31
2023-01-19T10:41:32.150Z,3.38
2023-01-19T10:42:35.595Z,3.38
2023-01-19T10:43:40.435Z,3.44
2023-01-19T10:45:16.530Z,3.44
2023-01-19T10:46:23.458Z,3.50
2023-01-19T10:47:27.309Z,3.56
2023-01-19T10:49:03.167Z,3.56
2023-01-19T10:50:07.113Z,3.63
2023-01-19T10:51:10.743Z,3.69
2023-01-19T10:52:46.728Z,3.69
2023-01-19T10:53:50.986Z,3.69
2023-01-19T10:54:54.774Z,3.75
2023-01-19T10:56:30.750Z,3.75
2023-01-19T10:57:34.499Z,3.81
2023-01-19T10:58:38.375Z,3.81
2023-01-19T11:00:12.273Z,3.88
2023-01-19T11:01:16.185Z,3.94
2023-01-19T11:02:21.035Z,3.94
2023-01-19T11:03:58.598Z,4.06
2023-01-19T11:05:02.228Z,4.06
2023-01-19T11:06:05.670Z,4.06
2023-01-19T11:07:41.188Z,4.06
2023-01-19T11:08:44.729Z,4.06
2023-01-19T11:09:48.323Z,4.13
2023-01-19T11:11:24.371Z,4.19
2023-01-19T11:12:27.771Z,4.19
2023-01-19T11:13:31.431Z,4.19
2023-01-19T11:15:07.110Z,4.25
2023-01-19T11:16:12.394Z,4.25
2023-01-19T11:17:16.161Z,4.31
2023-01-19T11:18:51.459Z,4.31
2023-01-19T11:19:54.985Z,4.31
2023-01-19T11:20:58.446Z,4.25
2023-01-19T11:22:33.970Z,4.31
2023-01-19T11:23:40.658Z,4.38
2023-01-19T11:24:44.177Z,4.38
2023-01-19T11:26:20.134Z,4.38
2023-01-19T11:27:23.633Z,4.44
2023-01-19T11:28:27.220Z,4.44
2023-01-19T11:30:03.491Z,4.50
2023-01-19T11:31:07.084Z,4.50
2023-01-19T11:32:11.289Z,4.50
2023-01-19T11:33:49.650Z,4.50
2023-01-19T11:34:53.732Z,4.50
2023-01-19T11:35:57.185Z,4.56
2023-01-19T11:37:32.750Z,4.63
2023-01-19T11:38:36.079Z,4.63
2023-01-19T11:39:39.650Z,4.69
2023-01-19T11:41:15.354Z,4.69
2023-01-19T11:42:18.681Z,4.69
2023-01-19T11:43:22.404Z,4.75
2023-01-19T11:45:17.375Z,4.69
2023-01-19T11:46:21.202Z,4.69
2023-01-19T11:47:25.171Z,4.75
2023-01-19T11:49:01.205Z,4.81
2023-01-19T11:50:04.605Z,4.81
2023-01-19T11:51:08.239Z,4.81
2023-01-19T11:52:43.931Z,4.88
2023-01-19T11:53:47.484Z,4.88
2023-01-19T11:54:50.818Z,4.88
2023-01-19T11:56:26.436Z,4.94
2023-01-19T11:57:29.701Z,4.94
2023-01-19T11:58:39.716Z,5.00
2023-01-19T12:00:11.886Z,5.00
2023-01-19T12:01:15.561Z,5.00
2023-01-19T12:02:19.451Z,4.94
2023-01-19T12:03:55.666Z,4.94
2023-01-19T12:04:59.143Z,5.00
2023-01-19T12:06:02.549Z,5.00
2023-01-19T12:07:38.179Z,5.06
2023-01-19T12:08:43.114Z,5.06
2023-01-19T12:09:46.676Z,5.06
2023-01-19T12:11:22.402Z,5.06
2023-01-19T12:12:25.978Z,5.06
2023-01-19T12:13:29.544Z,5.06
2023-01-19T12:15:06.583Z,5.06
2023-01-19T12:16:10.144Z,5.06
2023-01-19T12:17:14.158Z,5.13
2023-01-19T12:18:50.685Z,5.13
2023-01-19T12:19:55.260Z,5.13
2023-01-19T12:20:58.842Z,5.06
2023-01-19T12:22:34.502Z,5.13
2023-01-19T12:23:40.325Z,5.06
2023-01-19T12:24:43.905Z,5.06
2023-01-19T12:26:19.732Z,5.13
2023-01-19T12:27:23.023Z,5.13
2023-01-19T12:28:26.473Z,5.13
2023-01-19T12:30:02.159Z,5.19
2023-01-19T12:31:05.863Z,5.19
2023-01-19T12:32:10.596Z,5.19
2023-01-19T12:33:46.124Z,5.19
2023-01-19T12:34:49.501Z,5.19
2023-01-19T12:35:52.828Z,5.19
2023-01-19T12:37:28.376Z,5.19
2023-01-19T12:38:31.932Z,5.19
2023-01-19T12:39:35.551Z,5.19
2023-01-19T12:41:11.186Z,5.25
2023-01-19T12:42:14.653Z,5.25
2023-01-19T12:43:19.114Z,5.25
2023-01-19T12:44:54.985Z,5.31
2023-01-19T12:45:58.456Z,5.31
2023-01-19T12:47:02.244Z,5.25
2023-01-19T12:48:39.483Z,5.19
2023-01-19T12:49:43.083Z,5.19
2023-01-19T12:50:46.707Z,5.19
2023-01-19T12:52:22.402Z,5.19
2023-01-19T12:53:26.866Z,5.13
2023-01-19T12:54:30.373Z,5.13
2023-01-19T12:56:06.235Z,5.13
2023-01-19T12:57:09.716Z,5.13
2023-01-19T12:58:13.450Z,5.19
2023-01-19T12:59:49.205Z,5.19
2023-01-19T13:00:12.629Z,5.19
2023-01-19T13:01:18.661Z,5.19
2023-01-19T13:02:23.403Z,5.19
2023-01-19T13:03:59.441Z,5.25
2023-01-19T13:05:03.506Z,5.25
2023-01-19T13:06:08.311Z,5.25
2023-01-19T13:07:44.033Z,5.25
2023-01-19T13:08:47.789Z,5.25
2023-01-19T13:09:51.353Z,5.31
2023-01-19T13:11:30.301Z,5.31
2023-01-19T13:12:47.502Z,5.31
2023-01-19T13:13:50.914Z,5.38
2023-01-19T13:15:26.313Z,5.44
2023-01-19T13:16:31.084Z,5.44
2023-01-19T13:17:34.428Z,5.44
2023-01-19T13:19:10.475Z,5.38
2023-01-19T13:20:13.990Z,5.38
2023-01-19T13:21:17.429Z,5.44
2023-01-19T13:22:53.032Z,5.50
2023-01-19T13:23:56.338Z,5.50
2023-01-19T13:25:00.313Z,5.56
2023-01-19T13:26:36.234Z,5.63
2023-01-19T13:27:39.833Z,5.69
2023-01-19T13:28:43.579Z,5.63
2023-01-19T13:30:19.413Z,5.63
2023-01-19T13:31:23.611Z,5.63
2023-01-19T13:32:27.658Z,5.63
2023-01-19T13:34:03.450Z,5.63
2023-01-19T13:35:07.104Z,5.63
2023-01-19T13:36:10.575Z,5.56
2023-01-19T13:37:46.429Z,5.44
2023-01-19T13:38:49.784Z,5.38
2023-01-19T13:39:53.764Z,5.31
2023-01-19T13:41:29.915Z,5.25
2023-01-19T13:42:33.681Z,5.25
2023-01-19T13:43:37.119Z,5.25
2023-01-19T13:45:12.689Z,5.19
2023-01-19T13:46:16.424Z,5.13
2023-01-19T13:47:20.742Z,5.13
2023-01-19T13:48:56.457Z,5.06
2023-01-19T13:50:00.331Z,5.06
2023-01-19T13:51:03.782Z,5.13
2023-01-19T13:52:39.782Z,5.13
2023-01-19T13:53:43.231Z,5.13
2023-01-19T13:54:46.924Z,5.13
2023-01-19T13:56:27.893Z,5.13
2023-01-19T13:57:31.506Z,5.13
2023-01-19T13:58:35.407Z,5.19
2023-01-19T14:00:12.656Z,5.13
2023-01-19T14:01:17.108Z,5.13
2023-01-19T14:02:24.069Z,5.13
2023-01-19T14:04:01.257Z,5.06
2023-01-19T14:05:05.029Z,5.06
2023-01-19T14:06:08.820Z,5.00
2023-01-19T14:07:45.306Z,5.00
2023-01-19T14:08:49.250Z,5.00
2023-01-19T14:09:54.986Z,5.00
2023-01-19T14:11:31.416Z,5.00
2023-01-19T14:12:39.037Z,5.00
2023-01-19T14:13:57.772Z,5.00
2023-01-19T14:15:33.304Z,4.94
2023-01-19T14:16:38.079Z,4.94
2023-01-19T14:17:41.838Z,4.94
2023-01-19T14:19:19.679Z,4.88
2023-01-19T14:20:23.812Z,4.88
2023-01-19T14:21:27.471Z,4.81
2023-01-19T14:23:03.344Z,4.81
2023-01-19T14:24:06.933Z,4.75
2023-01-19T14:25:10.553Z,4.75
2023-01-19T14:26:46.799Z,4.75
2023-01-19T14:27:50.341Z,4.75
2023-01-19T14:28:53.811Z,4.69
2023-01-19T14:30:29.544Z,4.69
2023-01-19T14:31:33.663Z,4.69
2023-01-19T14:32:37.429Z,4.69
2023-01-19T14:34:13.083Z,4.69
2023-01-19T14:35:16.683Z,4.69
2023-01-19T14:36:20.272Z,4.69
2023-01-19T14:37:56.225Z,4.69
2023-01-19T14:38:59.771Z,4.69
2023-01-19T14:40:03.433Z,4.69
2023-01-19T14:41:39.258Z,4.69
2023-01-19T14:42:42.640Z,4.69
2023-01-19T14:43:46.255Z,4.69
2023-01-19T14:45:22.136Z,4.69
2023-01-19T14:46:25.929Z,4.69
2023-01-19T14:47:29.916Z,4.69
2023-01-19T14:49:05.827Z,4.69
2023-01-19T14:50:09.310Z,4.69
2023-01-19T14:51:13.022Z,4.63
2023-01-19T14:52:48.597Z,4.63
2023-01-19T14:53:51.986Z,4.63
2023-01-19T14:54:56.764Z,4.56
2023-01-19T14:56:33.115Z,4.56
2023-01-19T14:57:36.644Z,4.56
2023-01-19T14:58:40.197Z,4.50
2023-01-19T15:00:12.066Z,4.50
2023-01-19T15:01:16.091Z,4.50
2023-01-19T15:02:20.756Z,4.50
2023-01-19T15:04:01.864Z,4.50
2023-01-19T15:05:05.888Z,4.50
2023-01-19T15:06:09.622Z,4.50
2023-01-19T15:07:45.759Z,4.44
2023-01-19T15:08:49.064Z,4.44
2023-01-19T15:09:52.452Z,4.50
2023-01-19T15:11:28.279Z,4.50
2023-01-19T15:12:31.695Z,4.50
2023-01-19T15:13:35.507Z,4.50
2023-01-19T15:15:11.601Z,4.50
2023-01-19T15:16:15.081Z,4.50
2023-01-19T15:17:19.095Z,4.50
2023-01-19T15:18:54.874Z,4.50
2023-01-19T15:19:58.742Z,4.50
2023-01-19T15:21:02.686Z,4.50
2023-01-19T15:22:38.296Z,4.44
2023-01-19T15:23:41.901Z,4.38
2023-01-19T15:24:45.460Z,4.38
2023-01-19T15:26:22.141Z,4.31
2023-01-19T15:27:25.668Z,4.25
2023-01-19T15:28:28.948Z,4.25
2023-01-19T15:30:07.177Z,4.19
2023-01-19T15:31:11.291Z,4.19
2023-01-19T15:32:15.419Z,4.13
2023-01-19T15:33:50.958Z,4.13
2023-01-19T15:34:54.681Z,4.06
2023-01-19T15:35:58.718Z,4.06
2023-01-19T15:37:36.871Z,4.00
2023-01-19T15:38:40.536Z,3.94
2023-01-19T15:39:44.302Z,3.94
2023-01-19T15:41:23.177Z,3.88
2023-01-19T15:42:27.158Z,3.81
2023-01-19T15:43:30.698Z,3.81
2023-01-19T15:45:06.959Z,3.75
2023-01-19T15:46:11.282Z,3.69
2023-01-19T15:47:14.639Z,3.69
2023-01-19T15:48:50.551Z,3.63
2023-01-19T15:49:53.788Z,3.63
2023-01-19T15:50:57.549Z,3.63
2023-01-19T15:52:33.421Z,3.56
2023-01-19T15:53:37.172Z,3.56
2023-01-19T15:54:40.804Z,3.56
2023-01-19T15:56:16.834Z,3.44
2023-01-19T15:57:20.640Z,3.44
2023-01-19T15:58:24.113Z,3.38
2023-01-19T15:59:59.958Z,3.38
2023-01-19T16:00:12.693Z,3.38
2023-01-19T16:01:16.887Z,3.31
2023-01-19T16:02:21.892Z,3.31
2023-01-19T16:03:58.076Z,3.31
2023-01-19T16:05:04.361Z,3.25
2023-01-19T16:06:24.227Z,3.25
2023-01-19T16:08:01.919Z,3.25
2023-01-19T16:09:05.681Z,3.31
2023-01-19T16:10:09.570Z,3.31
2023-01-19T16:11:45.592Z,3.31
2023-01-19T16:12:49.143Z,3.31
2023-01-19T16:13:52.863Z,3.25
2023-01-19T16:15:30.535Z,3.25
2023-01-19T16:16:34.327Z,3.25
2023-01-19T16:17:37.964Z,3.25
2023-01-19T16:19:13.856Z,3.25
2023-01-19T16:20:17.581Z,3.19
2023-01-19T16:21:21.259Z,3.19
2023-01-19T16:23:06.254Z,3.19
2023-01-19T16:24:17.273Z,3.13
2023-01-19T16:25:21.184Z,3.06
2023-01-19T16:26:58.475Z,3.06
2023-01-19T16:28:02.199Z,3.00
2023-01-19T16:29:05.814Z,3.00